createdAt,value
2022-09-16T00:00:55.996Z,80.05
2022-09-16T00:03:23.010Z,80.01
2022-09-16T00:05:53.399Z,79.99
2022-09-16T00:08:21.771Z,78.95
2022-09-16T00:10:49.399Z,78.70
2022-09-16T00:13:16.825Z,78.75
2022-09-16T00:15:49.377Z,78.69
2022-09-16T00:18:16.317Z,79.46
2022-09-16T00:21:01.584Z,79.17
2022-09-16T00:23:36.020Z,79.13
2022-09-16T00:26:46.400Z,78.93
2022-09-16T00:29:13.248Z,79.29
2022-09-16T00:31:40.293Z,79.13
2022-09-16T00:34:06.957Z,79.23
2022-09-16T00:36:33.793Z,79.93
2022-09-16T00:39:00.589Z,79.82
2022-09-16T00:41:33.175Z,79.70
2022-09-16T00:44:05.756Z,79.67
2022-09-16T00:46:39.697Z,79.52
2022-09-16T00:49:13.364Z,78.96
2022-09-16T00:51:41.592Z,77.69
2022-09-16T00:54:10.502Z,78.05
2022-09-16T00:56:41.863Z,77.24
2022-09-16T00:59:14.855Z,77.39
2022-09-16T01:01:50.606Z,77.48
2022-09-16T01:04:26.763Z,77.42
2022-09-16T01:06:57.135Z,77.88
2022-09-16T01:09:26.189Z,77.57
2022-09-16T01:11:53.070Z,78.33
2022-09-16T01:14:41.083Z,78.98
2022-09-16T01:17:20.586Z,79.64
2022-09-16T01:20:12.103Z,80.11
2022-09-16T01:22:44.758Z,80.61
2022-09-16T01:25:41.716Z,81.13
2022-09-16T01:28:38.047Z,81.45
2022-09-16T01:31:33.855Z,80.81
2022-09-16T01:34:18.863Z,81.26
2022-09-16T01:37:07.761Z,81.29
2022-09-16T01:39:49.876Z,81.56
2022-09-16T01:42:58.618Z,81.71
2022-09-16T01:45:58.184Z,81.13
2022-09-16T01:48:53.025Z,81.69
2022-09-16T01:51:31.965Z,81.70
2022-09-16T01:54:05.979Z,81.82
2022-09-16T01:56:49.891Z,82.30
2022-09-16T01:59:31.593Z,82.11
2022-09-16T02:02:09.611Z,82.14
2022-09-16T02:04:51.685Z,81.66
2022-09-16T02:07:23.452Z,81.81
2022-09-16T02:09:56.763Z,82.00
2022-09-16T02:12:34.968Z,81.82
2022-09-16T02:15:08.563Z,82.11
2022-09-16T02:17:41.942Z,82.06
2022-09-16T02:20:13.477Z,82.64
2022-09-16T02:22:44.793Z,82.84
2022-09-16T02:25:14.989Z,82.75
2022-09-16T02:27:46.085Z,82.97
2022-09-16T02:30:18.607Z,82.88
2022-09-16T02:32:58.662Z,82.61
2022-09-16T02:35:27.596Z,83.06
2022-09-16T02:38:29.398Z,83.28
2022-09-16T02:40:58.416Z,83.37
2022-09-16T02:43:26.954Z,83.21
2022-09-16T02:46:19.328Z,83.35
2022-09-16T02:48:50.431Z,83.20
2022-09-16T02:51:34.454Z,83.03
2022-09-16T02:54:37.321Z,83.19
2022-09-16T02:57:05.054Z,83.18
2022-09-16T02:59:32.518Z,83.09
2022-09-16T03:02:01.500Z,83.15
2022-09-16T03:04:29.512Z,82.77
2022-09-16T03:06:59.089Z,82.90
2022-09-16T03:09:26.182Z,83.46
2022-09-16T03:12:16.772Z,83.57
2022-09-16T03:14:43.781Z,82.90
2022-09-16T03:17:36.668Z,83.32
2022-09-16T03:20:17.118Z,83.50
2022-09-16T03:22:50.867Z,83.68
2022-09-16T03:25:39.807Z,83.47
2022-09-16T03:28:17.041Z,83.35
2022-09-16T03:30:53.724Z,82.91
2022-09-16T03:33:54.009Z,83.45
2022-09-16T03:36:29.547Z,83.60
2022-09-16T03:38:58.802Z,83.75
2022-09-16T03:41:29.955Z,83.97
2022-09-16T03:44:03.767Z,83.93
2022-09-16T03:46:31.744Z,83.90
2022-09-16T03:49:00.414Z,83.72
2022-09-16T03:51:27.102Z,83.56
2022-09-16T03:53:54.539Z,83.32
2022-09-16T03:56:25.887Z,83.83
2022-09-16T03:58:52.812Z,84.05
2022-09-16T04:01:23.088Z,84.23
2022-09-16T04:03:49.929Z,84.24
2022-09-16T04:06:16.639Z,84.07
2022-09-16T04:08:45.139Z,84.53
2022-09-16T04:11:11.853Z,85.11
2022-09-16T04:13:38.568Z,84.95
2022-09-16T04:16:05.683Z,84.85
2022-09-16T04:18:33.489Z,85.01
2022-09-16T04:21:02.047Z,85.46
2022-09-16T04:23:31.378Z,85.66
2022-09-16T04:25:59.628Z,85.23
2022-09-16T04:28:26.633Z,85.34
2022-09-16T04:30:53.779Z,85.21
2022-09-16T04:33:21.154Z,85.60
2022-09-16T04:35:50.623Z,84.94
2022-09-16T04:38:17.220Z,85.19
2022-09-16T04:40:43.854Z,84.93
2022-09-16T04:43:15.902Z,84.70
2022-09-16T04:45:42.544Z,84.10
2022-09-16T04:48:09.526Z,83.57
2022-09-16T04:50:36.435Z,83.88
2022-09-16T04:53:03.393Z,83.89
2022-09-16T04:55:30.226Z,83.18
2022-09-16T04:58:00.906Z,82.00
2022-09-16T05:00:28.004Z,82.84
2022-09-16T05:02:54.874Z,83.94
2022-09-16T05:05:22.016Z,84.15
2022-09-16T05:07:48.528Z,84.18
2022-09-16T05:10:15.287Z,84.82
2022-09-16T05:12:41.778Z,85.45
2022-09-16T05:15:11.190Z,85.22
2022-09-16T05:17:50.759Z,85.03
2022-09-16T05:20:18.112Z,85.05
2022-09-16T05:22:53.147Z,85.21
2022-09-16T05:25:19.749Z,84.24
2022-09-16T05:27:47.186Z,84.57
2022-09-16T05:30:15.832Z,84.53
2022-09-16T05:32:42.797Z,85.35
2022-09-16T05:35:10.199Z,84.97
2022-09-16T05:37:36.839Z,84.55
2022-09-16T05:40:03.676Z,83.72
2022-09-16T05:42:30.425Z,83.80
2022-09-16T05:44:56.839Z,83.31
2022-09-16T05:47:23.273Z,83.66
2022-09-16T05:49:49.920Z,83.85
2022-09-16T05:52:16.441Z,83.59
2022-09-16T05:54:43.320Z,83.64
2022-09-16T05:57:09.849Z,83.41
2022-09-16T05:59:36.334Z,83.51
2022-09-16T06:02:03.060Z,83.77
2022-09-16T06:04:29.633Z,83.39
2022-09-16T06:06:56.200Z,83.28
2022-09-16T06:09:24.671Z,83.04
2022-09-16T06:11:56.639Z,83.17
2022-09-16T06:14:25.084Z,82.77
2022-09-16T06:16:51.924Z,82.17
2022-09-16T06:19:18.873Z,81.67
2022-09-16T06:21:45.942Z,81.35
2022-09-16T06:24:14.270Z,80.90
2022-09-16T06:26:42.641Z,80.95
2022-09-16T06:29:10.114Z,80.26
2022-09-16T06:31:37.882Z,80.74
2022-09-16T06:34:05.467Z,80.94
2022-09-16T06:36:35.010Z,80.18
2022-09-16T06:39:01.623Z,80.37
2022-09-16T06:41:28.152Z,80.39
2022-09-16T06:43:54.790Z,80.28
2022-09-16T06:46:24.702Z,80.22
2022-09-16T06:48:53.985Z,79.88
2022-09-16T06:51:25.690Z,79.63
2022-09-16T06:53:56.903Z,79.57
2022-09-16T06:56:23.443Z,79.28
2022-09-16T06:58:55.783Z,79.67
2022-09-16T07:01:29.082Z,80.15
2022-09-16T07:03:59.107Z,80.20
2022-09-16T07:09:19.102Z,79.21
2022-09-16T07:11:45.651Z,78.64
2022-09-16T07:14:12.364Z,77.29
2022-09-16T07:16:38.899Z,76.92
2022-09-16T07:19:06.065Z,76.09
2022-09-16T07:21:32.800Z,75.72
2022-09-16T07:24:01.387Z,74.44
2022-09-16T07:26:33.565Z,73.88
2022-09-16T07:29:02.137Z,74.58
2022-09-16T07:31:30.996Z,74.23
2022-09-16T07:34:03.786Z,73.34
2022-09-16T07:36:34.498Z,73.66
2022-09-16T07:39:01.486Z,72.52
2022-09-16T07:41:30.740Z,71.63
2022-09-16T07:44:01.002Z,70.29
2022-09-16T07:46:30.699Z,70.52
2022-09-16T07:48:59.197Z,69.68
2022-09-16T07:51:27.600Z,69.90
2022-09-16T07:53:56.317Z,68.78
2022-09-16T07:56:25.452Z,68.35
2022-09-16T07:58:53.242Z,68.33
2022-09-16T08:01:20.177Z,68.13
2022-09-16T08:03:48.965Z,67.98
2022-09-16T08:06:22.284Z,68.08
2022-09-16T08:08:52.503Z,69.13
2022-09-16T08:11:19.242Z,68.72
2022-09-16T08:13:46.442Z,67.56
2022-09-16T08:16:18.737Z,68.09
2022-09-16T08:18:47.377Z,67.59
2022-09-16T08:21:26.152Z,64.80
2022-09-16T08:23:52.949Z,64.55
2022-09-16T08:26:20.706Z,65.68
2022-09-16T08:29:08.889Z,66.05
2022-09-16T08:31:37.335Z,67.30
2022-09-16T08:34:04.175Z,68.55
2022-09-16T08:36:33.462Z,69.19
2022-09-16T08:39:00.346Z,68.78
2022-09-16T08:41:48.966Z,67.39
2022-09-16T08:44:24.777Z,66.80
2022-09-16T08:47:09.073Z,66.62
2022-09-16T08:49:43.982Z,67.59
2022-09-16T08:52:15.411Z,67.23
2022-09-16T08:54:49.836Z,66.13
2022-09-16T08:57:21.308Z,66.01
2022-09-16T09:00:22.727Z,64.57
2022-09-16T09:03:14.847Z,64.44
2022-09-16T09:05:47.640Z,64.92
2022-09-16T09:08:19.990Z,65.12
2022-09-16T09:10:54.185Z,64.91
2022-09-16T09:13:37.376Z,64.17
2022-09-16T09:16:10.194Z,64.12
2022-09-16T09:18:39.906Z,63.72
2022-09-16T09:21:27.910Z,60.32
2022-09-16T09:24:08.015Z,59.77
2022-09-16T09:26:57.428Z,57.70
2022-09-16T09:29:26.807Z,55.67
2022-09-16T09:32:02.055Z,54.55
2022-09-16T09:34:59.338Z,53.71
2022-09-16T09:37:56.446Z,54.42
2022-09-16T09:40:49.155Z,53.42
2022-09-16T09:43:24.171Z,52.87
2022-09-16T09:46:05.505Z,53.83
2022-09-16T09:48:40.227Z,50.01
2022-09-16T09:51:33.387Z,45.83
2022-09-16T09:54:08.459Z,43.15
2022-09-16T09:56:40.392Z,45.61
2022-09-16T09:59:16.672Z,49.07
2022-09-16T10:01:44.027Z,50.06
2022-09-16T10:04:17.581Z,49.81
2022-09-16T10:06:46.127Z,51.14
2022-09-16T10:09:14.628Z,53.52
2022-09-16T10:11:50.240Z,55.24
2022-09-16T10:14:36.911Z,55.13
2022-09-16T10:17:22.142Z,55.82
2022-09-16T10:20:20.604Z,56.40
2022-09-16T10:22:57.589Z,53.90
2022-09-16T10:25:26.958Z,52.51
2022-09-16T10:28:05.249Z,53.18
2022-09-16T10:30:48.336Z,53.01
2022-09-16T10:33:22.720Z,53.02
2022-09-16T10:36:32.808Z,55.05
2022-09-16T10:39:35.758Z,56.09
2022-09-16T10:42:32.090Z,55.40
2022-09-16T10:45:22.499Z,55.00
2022-09-16T10:48:04.881Z,54.73
2022-09-16T10:50:34.334Z,54.11
2022-09-16T10:53:07.407Z,52.66
2022-09-16T10:55:39.248Z,53.37
2022-09-16T10:58:28.517Z,53.47
2022-09-16T11:01:34.729Z,55.26
2022-09-16T11:04:36.578Z,56.87
2022-09-16T11:07:09.273Z,57.23
2022-09-16T11:10:16.180Z,57.75
2022-09-16T11:13:08.090Z,58.56
2022-09-16T11:15:50.180Z,59.26
2022-09-16T11:18:35.426Z,60.16
2022-09-16T11:22:06.531Z,60.65
2022-09-16T11:24:46.260Z,59.24
2022-09-16T11:27:53.658Z,59.25
2022-09-16T11:30:22.652Z,59.59
2022-09-16T11:33:03.078Z,59.69
2022-09-16T11:35:47.537Z,60.41
2022-09-16T11:38:43.935Z,61.15
2022-09-16T11:41:37.906Z,61.14
2022-09-16T11:44:20.571Z,61.08
2022-09-16T11:47:06.518Z,60.50
2022-09-16T11:50:10.670Z,61.06
2022-09-16T11:53:04.039Z,61.11
2022-09-16T11:55:52.092Z,60.27
2022-09-16T11:58:34.074Z,60.90
2022-09-16T12:01:10.625Z,61.34
2022-09-16T12:03:54.828Z,61.84
2022-09-16T12:06:25.952Z,62.07
2022-09-16T12:09:03.815Z,61.87
2022-09-16T12:11:54.195Z,61.46
2022-09-16T12:14:32.160Z,61.58
2022-09-16T12:17:11.064Z,61.52
2022-09-16T12:20:04.891Z,62.35
2022-09-16T12:22:48.315Z,62.95
2022-09-16T12:25:46.093Z,63.78
2022-09-16T12:28:32.105Z,64.07
2022-09-16T12:31:23.739Z,65.93
2022-09-16T12:34:06.036Z,68.67
2022-09-16T12:36:37.658Z,70.09
2022-09-16T12:39:04.261Z,67.08
2022-09-16T12:42:01.267Z,67.24
2022-09-16T12:45:07.339Z,65.67
2022-09-16T12:47:49.438Z,64.61
2022-09-16T12:54:16.850Z,61.13
2022-09-16T12:57:02.129Z,60.82
2022-09-16T12:59:51.380Z,61.42
2022-09-16T13:02:22.060Z,62.97
2022-09-16T13:04:56.184Z,64.15
2022-09-16T13:07:38.552Z,67.55
2022-09-16T13:10:46.838Z,69.50
2022-09-16T13:13:25.074Z,69.37
2022-09-16T13:16:00.083Z,69.16
2022-09-16T13:18:38.504Z,72.02
2022-09-16T13:21:39.248Z,69.20
2022-09-16T13:24:23.897Z,67.98
2022-09-16T13:26:51.056Z,67.41
2022-09-16T13:29:39.515Z,68.24
2022-09-16T13:32:24.478Z,69.86
2022-09-16T13:35:04.415Z,70.26
2022-09-16T13:37:32.948Z,68.32
2022-09-16T13:40:09.866Z,69.98
2022-09-16T13:42:36.632Z,70.01
2022-09-16T13:45:03.509Z,71.27
2022-09-16T13:47:40.318Z,68.02
2022-09-16T13:52:57.001Z,65.23
2022-09-16T13:55:31.958Z,63.89
2022-09-16T13:58:07.932Z,63.04
2022-09-16T14:01:01.591Z,61.20
2022-09-16T14:03:55.715Z,60.11
2022-09-16T14:06:50.458Z,61.15
2022-09-16T14:09:20.329Z,60.39
2022-09-16T14:12:09.447Z,58.43
2022-09-16T14:14:46.793Z,57.16
2022-09-16T14:17:27.787Z,57.16
2022-09-16T14:20:00.182Z,56.18
2022-09-16T14:22:37.205Z,56.31
2022-09-16T14:25:19.543Z,53.39
2022-09-16T14:30:30.727Z,49.19
2022-09-16T14:32:57.867Z,48.14
2022-09-16T14:35:30.428Z,49.17
2022-09-16T14:38:04.032Z,50.88
2022-09-16T14:40:31.303Z,50.58
2022-09-16T14:43:07.035Z,51.70
2022-09-16T14:45:37.026Z,51.77
2022-09-16T14:48:09.604Z,52.42
2022-09-16T14:50:43.758Z,51.82
2022-09-16T14:53:38.505Z,51.73
2022-09-16T14:56:06.042Z,51.28
2022-09-16T14:58:33.921Z,50.11
2022-09-16T15:01:10.515Z,48.59
2022-09-16T15:03:53.628Z,48.08
2022-09-16T15:06:24.953Z,47.24
2022-09-16T15:08:58.987Z,47.64
2022-09-16T15:11:53.163Z,48.18
2022-09-16T15:14:25.992Z,48.17
2022-09-16T15:17:00.902Z,48.57
2022-09-16T15:19:36.281Z,49.67
2022-09-16T15:22:11.329Z,49.80
2022-09-16T15:24:45.759Z,49.81
2022-09-16T15:27:20.653Z,49.84
2022-09-16T15:29:52.025Z,50.06
2022-09-16T15:32:22.624Z,50.43
2022-09-16T15:35:00.517Z,50.58
2022-09-16T15:37:35.893Z,50.42
2022-09-16T15:43:04.343Z,52.25
2022-09-16T15:45:31.665Z,51.48
2022-09-16T15:48:21.257Z,51.90
2022-09-16T15:50:56.318Z,52.72
2022-09-16T15:53:32.426Z,53.42
2022-09-16T15:56:20.454Z,53.78
2022-09-16T15:58:58.346Z,53.34
2022-09-16T16:01:46.891Z,54.13
2022-09-16T16:04:25.619Z,57.76
2022-09-16T16:06:58.531Z,62.27
2022-09-16T16:09:32.326Z,70.95
2022-09-16T16:12:11.742Z,73.95
2022-09-16T16:14:41.439Z,75.91
2022-09-16T16:17:14.830Z,77.24
2022-09-16T16:19:46.414Z,80.26
2022-09-16T16:25:00.975Z,79.59
2022-09-16T16:27:27.677Z,77.39
2022-09-16T16:29:56.876Z,76.72
2022-09-16T16:32:23.581Z,77.86
2022-09-16T16:34:50.591Z,79.44
2022-09-16T16:37:40.656Z,79.72
2022-09-16T16:40:08.168Z,82.89
2022-09-16T16:42:37.159Z,83.24
2022-09-16T16:45:06.968Z,84.23
2022-09-16T16:47:33.844Z,83.87
2022-09-16T16:50:19.684Z,82.80
2022-09-16T16:53:22.402Z,83.89
2022-09-16T16:55:49.220Z,82.34
2022-09-16T16:58:16.043Z,81.72
2022-09-16T17:00:42.859Z,81.34
2022-09-16T17:03:09.672Z,82.34
2022-09-16T17:05:37.268Z,81.71
2022-09-16T17:08:07.274Z,82.45
2022-09-16T17:13:46.151Z,83.27
2022-09-16T17:16:17.167Z,83.08
2022-09-16T17:18:49.578Z,81.24
2022-09-16T17:21:34.396Z,81.08
2022-09-16T17:26:50.519Z,81.87
2022-09-16T17:29:20.714Z,84.49
2022-09-16T17:31:59.512Z,84.46
2022-09-16T17:34:26.650Z,85.05
2022-09-16T17:37:05.538Z,84.74
2022-09-16T17:39:33.760Z,83.43
2022-09-16T17:42:00.732Z,82.71
2022-09-16T17:44:27.738Z,82.20
2022-09-16T17:46:54.506Z,82.89
2022-09-16T17:49:24.020Z,82.98
2022-09-16T17:51:53.859Z,84.04
2022-09-16T17:54:23.707Z,84.27
2022-09-16T17:56:50.681Z,84.67
2022-09-16T17:59:19.040Z,84.12
2022-09-16T18:01:46.946Z,84.61
2022-09-16T18:04:13.590Z,84.50
2022-09-16T18:06:42.936Z,83.83
2022-09-16T18:09:10.017Z,84.29
2022-09-16T18:11:40.651Z,84.05
2022-09-16T18:14:10.880Z,84.44
2022-09-16T18:16:37.800Z,84.83
2022-09-16T18:19:10.966Z,85.08
2022-09-16T18:21:38.451Z,85.38
2022-09-16T18:24:13.141Z,85.75
2022-09-16T18:26:42.171Z,84.88
2022-09-16T18:29:12.552Z,85.35
2022-09-16T18:31:48.694Z,85.57
2022-09-16T18:34:19.734Z,86.16
2022-09-16T18:36:47.004Z,86.27
2022-09-16T18:39:23.145Z,85.86
2022-09-16T18:41:50.312Z,85.25
2022-09-16T18:44:21.565Z,84.89
2022-09-16T18:46:48.554Z,83.56
2022-09-16T18:49:17.259Z,83.50
2022-09-16T18:51:52.210Z,83.07
2022-09-16T18:54:28.031Z,83.17
2022-09-16T18:59:41.039Z,82.80
2022-09-16T19:02:11.467Z,82.96
2022-09-16T19:04:39.885Z,83.41
2022-09-16T19:07:08.447Z,84.22
2022-09-16T19:09:37.701Z,85.55
2022-09-16T19:14:50.258Z,86.67
2022-09-16T19:17:17.398Z,88.25
2022-09-16T19:19:44.143Z,89.65
2022-09-16T19:22:11.196Z,89.62
2022-09-16T19:24:38.874Z,89.05
2022-09-16T19:27:06.675Z,89.53
2022-09-16T19:29:36.776Z,88.98
2022-09-16T19:32:03.991Z,89.50
2022-09-16T19:34:32.969Z,89.40
2022-09-16T19:37:03.372Z,89.86
2022-09-16T19:39:30.454Z,90.40
2022-09-16T19:41:57.160Z,90.93
2022-09-16T19:44:23.771Z,90.48
2022-09-16T19:49:32.275Z,90.44
2022-09-16T19:51:58.720Z,89.82
2022-09-16T19:54:25.400Z,89.73
2022-09-16T19:56:52.526Z,88.73
2022-09-16T19:59:21.117Z,88.33
2022-09-16T20:01:48.110Z,88.92
2022-09-16T20:04:15.651Z,88.72
2022-09-16T20:06:44.853Z,89.18
2022-09-16T20:09:13.422Z,88.85
2022-09-16T20:11:46.174Z,87.80
2022-09-16T20:14:21.824Z,87.50
2022-09-16T20:16:50.713Z,86.98
2022-09-16T20:19:20.055Z,85.64
2022-09-16T20:21:47.418Z,84.63
2022-09-16T20:24:18.462Z,84.24
2022-09-16T20:26:46.060Z,84.01
2022-09-16T20:29:17.838Z,83.71
2022-09-16T20:31:45.904Z,83.82
2022-09-16T20:34:14.824Z,84.89
2022-09-16T20:36:46.452Z,85.18
2022-09-16T20:39:14.556Z,85.06
2022-09-16T20:41:41.928Z,84.86
2022-09-16T20:44:13.012Z,85.04
2022-09-16T20:46:39.602Z,84.94
2022-09-16T20:49:12.390Z,84.85
2022-09-16T20:51:38.963Z,85.36
2022-09-16T20:54:08.619Z,85.17
2022-09-16T20:56:39.249Z,85.21
2022-09-16T20:59:08.005Z,84.98
2022-09-16T21:01:35.722Z,84.55
2022-09-16T21:04:05.163Z,84.49
2022-09-16T21:06:34.569Z,84.88
2022-09-16T21:09:04.201Z,84.98
2022-09-16T21:11:32.046Z,85.04
2022-09-16T21:14:06.470Z,85.54
2022-09-16T21:16:36.051Z,85.61
2022-09-16T21:19:05.107Z,85.82
2022-09-16T21:21:34.412Z,86.22
2022-09-16T21:24:01.444Z,86.14
2022-09-16T21:26:33.137Z,86.89
2022-09-16T21:29:11.523Z,87.29
2022-09-16T21:31:39.926Z,87.84
2022-09-16T21:34:10.743Z,88.29
2022-09-16T21:36:41.170Z,88.39
2022-09-16T21:39:08.640Z,88.58
2022-09-16T21:41:35.790Z,88.59
2022-09-16T21:44:03.987Z,88.53
2022-09-16T21:46:40.140Z,88.73
2022-09-16T21:49:13.523Z,88.69
2022-09-16T21:51:40.041Z,88.59
2022-09-16T21:54:09.324Z,88.89
2022-09-16T21:56:40.807Z,89.45
2022-09-16T21:59:08.656Z,89.91
2022-09-16T22:04:26.016Z,89.94
2022-09-16T22:06:55.424Z,90.21
2022-09-16T22:09:24.800Z,90.81
2022-09-16T22:11:52.130Z,91.04
2022-09-16T22:14:19.319Z,91.32
2022-09-16T22:16:46.313Z,91.54
2022-09-16T22:19:19.808Z,91.97
2022-09-16T22:21:50.400Z,92.08
2022-09-16T22:24:20.384Z,92.29
2022-09-16T22:26:50.516Z,92.39
2022-09-16T22:29:17.506Z,92.50
2022-09-16T22:31:44.262Z,92.62
2022-09-16T22:34:10.863Z,93.40
2022-09-16T22:36:38.551Z,93.53
2022-09-16T22:39:14.072Z,93.78
2022-09-16T22:41:41.242Z,94.00
2022-09-16T22:44:10.894Z,93.96
2022-09-16T22:46:46.389Z,93.79
2022-09-16T22:49:14.074Z,93.87
2022-09-16T22:51:41.173Z,93.81
2022-09-16T22:54:08.986Z,93.74
2022-09-16T22:56:35.900Z,93.47
2022-09-16T22:59:06.471Z,93.65
2022-09-16T23:01:39.301Z,93.50
2022-09-16T23:04:08.223Z,93.46
2022-09-16T23:06:36.178Z,93.37
2022-09-16T23:09:03.751Z,93.49
2022-09-16T23:11:32.885Z,93.75
2022-09-16T23:14:01.326Z,93.80
2022-09-16T23:19:12.494Z,93.76
2022-09-16T23:21:39.732Z,93.95
2022-09-16T23:24:08.502Z,94.27
2022-09-16T23:26:38.066Z,94.25
2022-09-16T23:29:07.631Z,94.14
2022-09-16T23:31:38.258Z,93.98
2022-09-16T23:34:10.261Z,93.80
2022-09-16T23:36:37.686Z,93.55
2022-09-16T23:39:06.754Z,93.57
2022-09-16T23:41:33.599Z,93.82
2022-09-16T23:44:00.099Z,93.60
2022-09-16T23:46:29.552Z,93.66
2022-09-16T23:48:56.977Z,93.98
2022-09-16T23:51:28.279Z,93.74
2022-09-16T23:53:56.645Z,93.32
2022-09-16T23:56:23.362Z,92.69
2022-09-16T23:58:51.071Z,92.46
